createdAt,value
2018-02-03T00:00:13.925Z,8.86
2018-02-03T00:00:54.504Z,8.86
2018-02-03T00:01:35.002Z,8.89
2018-02-03T00:02:15.602Z,8.86
2018-02-03T00:02:56.181Z,8.79
2018-02-03T00:03:36.708Z,8.76
2018-02-03T00:04:17.276Z,8.7
2018-02-03T00:04:57.804Z,8.73
2018-02-03T00:05:38.356Z,8.83
2018-02-03T00:06:18.907Z,8.91
2018-02-03T00:06:59.484Z,8.95
2018-02-03T00:07:39.995Z,8.99
2018-02-03T00:08:20.589Z,8.99
2018-02-03T00:09:01.134Z,8.83
2018-02-03T00:09:41.671Z,8.83
2018-02-03T00:10:22.163Z,8.95
2018-02-03T00:11:02.723Z,8.83
2018-02-03T00:11:43.301Z,8.89
2018-02-03T00:12:23.817Z,8.99
2018-02-03T00:13:04.325Z,9.05
2018-02-03T00:13:44.912Z,9.01
2018-02-03T00:14:25.412Z,9.04
2018-02-03T00:15:06.079Z,8.81
2018-02-03T00:15:46.565Z,8.86
2018-02-03T00:16:27.105Z,8.81
2018-02-03T00:17:07.658Z,8.74
2018-02-03T00:17:48.192Z,8.76
2018-02-03T00:18:28.706Z,8.66
2018-02-03T00:19:09.318Z,8.66
2018-02-03T00:19:49.853Z,8.52
2018-02-03T00:20:30.416Z,8.34
2018-02-03T00:21:10.966Z,8.5
2018-02-03T00:21:51.532Z,8.61
2018-02-03T00:22:32.099Z,8.38
2018-02-03T00:23:12.608Z,8.45
2018-02-03T00:23:53.337Z,8.4
2018-02-03T00:24:33.868Z,8.2
2018-02-03T00:25:14.421Z,8.26
2018-02-03T00:25:54.943Z,8.25
2018-02-03T00:26:35.456Z,8.34
2018-02-03T00:27:15.967Z,8.33
2018-02-03T00:27:56.482Z,8.43
2018-02-03T00:28:37.052Z,8.41
2018-02-03T00:29:17.694Z,8.34
2018-02-03T00:29:58.150Z,8.33
2018-02-03T00:30:38.676Z,8.37
2018-02-03T00:31:19.222Z,8.45
2018-02-03T00:31:59.789Z,8.44
2018-02-03T00:32:40.308Z,8.56
2018-02-03T00:33:21.070Z,8.58
2018-02-03T00:34:01.567Z,8.53
2018-02-03T00:34:42.129Z,8.58
2018-02-03T00:35:22.640Z,8.71
2018-02-03T00:36:03.251Z,8.56
2018-02-03T00:36:44.090Z,8.62
2018-02-03T00:37:24.989Z,8.53
2018-02-03T00:38:05.426Z,8.52
2018-02-03T00:38:45.976Z,8.61
2018-02-03T00:39:26.509Z,8.47
2018-02-03T00:40:07.055Z,8.48
2018-02-03T00:40:47.601Z,8.58
2018-02-03T00:41:28.191Z,8.56
2018-02-03T00:42:08.658Z,8.5
2018-02-03T00:42:49.242Z,8.48
2018-02-03T00:43:29.826Z,8.58
2018-02-03T00:44:10.302Z,8.38
2018-02-03T00:44:50.800Z,8.26
2018-02-03T00:45:31.383Z,8.23
2018-02-03T00:46:11.966Z,8.36
2018-02-03T00:46:52.474Z,8.25
2018-02-03T00:47:33.065Z,8.25
2018-02-03T00:48:13.564Z,8.25
2018-02-03T00:48:54.171Z,8.3
2018-02-03T00:49:34.663Z,8.29
2018-02-03T00:50:15.189Z,8.34
2018-02-03T00:50:55.763Z,8.3
2018-02-03T00:51:36.264Z,8.45
2018-02-03T00:52:16.982Z,8.62
2018-02-03T00:52:57.468Z,8.66
2018-02-03T00:53:38.012Z,8.66
2018-02-03T00:54:18.546Z,8.7
2018-02-03T00:54:59.065Z,8.63
2018-02-03T00:55:39.658Z,8.56
2018-02-03T00:56:20.193Z,8.52
2018-02-03T00:57:00.732Z,8.52
2018-02-03T00:57:41.270Z,8.45
2018-02-03T00:58:21.842Z,8.56
2018-02-03T00:59:02.395Z,8.61
2018-02-03T00:59:42.883Z,8.47
2018-02-03T01:00:23.372Z,8.4
2018-02-03T01:01:03.987Z,8.44
2018-02-03T01:01:44.514Z,8.2
2018-02-03T01:02:25.074Z,8.36
2018-02-03T01:03:05.640Z,8.52
2018-02-03T01:03:46.166Z,8.59
2018-02-03T01:04:27.263Z,8.47
2018-02-03T01:05:07.859Z,8.44
2018-02-03T01:05:48.428Z,8.43
2018-02-03T01:06:28.978Z,8.36
2018-02-03T01:07:09.568Z,8.41
2018-02-03T01:07:50.044Z,8.38
2018-02-03T01:08:30.593Z,8.07
2018-02-03T01:09:11.144Z,8.07
2018-02-03T01:09:51.680Z,8.07
2018-02-03T01:10:32.252Z,8.05
2018-02-03T01:11:12.737Z,8.1
2018-02-03T01:11:53.269Z,8.11
2018-02-03T01:12:33.763Z,8.18
2018-02-03T01:13:14.288Z,8.1
2018-02-03T01:13:54.878Z,8.04
2018-02-03T01:14:35.416Z,7.92
2018-02-03T01:15:15.950Z,7.83
2018-02-03T01:15:56.451Z,7.82
2018-02-03T01:16:37.057Z,7.68
2018-02-03T01:17:17.544Z,7.83
2018-02-03T01:17:58.071Z,7.8
2018-02-03T01:18:38.613Z,7.95
2018-02-03T01:19:19.146Z,7.97
2018-02-03T01:19:59.703Z,7.92
2018-02-03T01:20:40.278Z,7.85
2018-02-03T01:21:20.831Z,7.9
2018-02-03T01:22:01.399Z,7.98
2018-02-03T01:22:41.951Z,8.05
2018-02-03T01:23:22.482Z,8.05
2018-02-03T01:24:03.013Z,8.02
2018-02-03T01:24:43.551Z,8.02
2018-02-03T01:25:24.042Z,8.1
2018-02-03T01:26:04.592Z,8.11
2018-02-03T01:26:45.103Z,8.11
2018-02-03T01:27:25.636Z,8.02
2018-02-03T01:28:06.172Z,7.92
2018-02-03T01:28:46.684Z,7.89
2018-02-03T01:29:27.220Z,7.83
2018-02-03T01:30:07.757Z,7.82
2018-02-03T01:30:48.291Z,8.11
2018-02-03T01:31:28.854Z,8.08
2018-02-03T01:32:09.402Z,8.04
2018-02-03T01:32:49.929Z,8.15
2018-02-03T01:33:30.509Z,8.07
2018-02-03T01:34:11.030Z,8.04
2018-02-03T01:34:51.587Z,8.1
2018-02-03T01:35:32.180Z,8.12
2018-02-03T01:36:12.681Z,8.2
2018-02-03T01:36:53.235Z,8.16
2018-02-03T01:37:33.784Z,8.11
2018-02-03T01:38:14.299Z,8.23
2018-02-03T01:38:54.827Z,8.25
2018-02-03T01:39:35.382Z,8.12
2018-02-03T01:40:15.892Z,8.12
2018-02-03T01:40:56.472Z,8.12
2018-02-03T01:41:36.957Z,8.15
2018-02-03T01:42:17.480Z,8.07
2018-02-03T01:42:58.041Z,8.23
2018-02-03T01:43:38.598Z,8.26
2018-02-03T01:44:19.146Z,8.2
2018-02-03T01:44:59.789Z,8.2
2018-02-03T01:45:40.195Z,8.08
2018-02-03T01:46:20.751Z,7.98
2018-02-03T01:47:01.270Z,8.11
2018-02-03T01:47:41.852Z,8.11
2018-02-03T01:48:22.340Z,8.07
2018-02-03T01:49:02.855Z,8.08
2018-02-03T01:49:43.380Z,8
2018-02-03T01:50:23.922Z,8.08
2018-02-03T01:51:04.445Z,8.07
2018-02-03T01:51:44.983Z,8.15
2018-02-03T01:52:25.534Z,8.02
2018-02-03T01:53:06.088Z,8.11
2018-02-03T01:53:46.650Z,8.15
2018-02-03T01:54:27.198Z,7.98
2018-02-03T01:55:07.765Z,7.93
2018-02-03T01:55:48.253Z,8.05
2018-02-03T01:56:28.831Z,8.07
2018-02-03T01:57:09.326Z,8.15
2018-02-03T01:57:49.972Z,8.15
2018-02-03T01:58:30.506Z,8.28
2018-02-03T01:59:11.009Z,8.25
2018-02-03T01:59:51.517Z,8.15
2018-02-03T02:00:32.112Z,8.15
2018-02-03T02:01:12.643Z,8.05
2018-02-03T02:01:53.172Z,8.18
2018-02-03T02:02:33.734Z,8.2
2018-02-03T02:03:14.272Z,8.16
2018-02-03T02:03:54.826Z,8.11
2018-02-03T02:04:35.401Z,8.26
2018-02-03T02:05:15.928Z,8.38
2018-02-03T02:05:56.478Z,8.33
2018-02-03T02:06:37.003Z,8.25
2018-02-03T02:07:17.541Z,8.28
2018-02-03T02:07:58.053Z,8.19
2018-02-03T02:08:38.580Z,8.1
2018-02-03T02:09:19.140Z,8.22
2018-02-03T02:09:59.725Z,8.29
2018-02-03T02:10:40.243Z,8.29
2018-02-03T02:11:20.773Z,8.28
2018-02-03T02:12:01.289Z,8.41
2018-02-03T02:12:41.839Z,8.19
2018-02-03T02:13:22.383Z,8.36
2018-02-03T02:14:02.942Z,8.34
2018-02-03T02:14:43.469Z,8.44
2018-02-03T02:15:23.983Z,8.5
2018-02-03T02:16:04.505Z,8.4
2018-02-03T02:16:45.059Z,8.43
2018-02-03T02:17:25.622Z,8.47
2018-02-03T02:18:06.161Z,8.45
2018-02-03T02:18:46.693Z,8.41
2018-02-03T02:19:27.267Z,8.2
2018-02-03T02:20:07.835Z,8.33
2018-02-03T02:20:48.364Z,8.45
2018-02-03T02:21:28.828Z,8.44
2018-02-03T02:22:09.325Z,8.43
2018-02-03T02:22:49.854Z,8.43
2018-02-03T02:23:30.445Z,8.29
2018-02-03T02:24:10.924Z,8.25
2018-02-03T02:24:51.487Z,8.11
2018-02-03T02:25:32.009Z,8.07
2018-02-03T02:26:12.589Z,8.26
2018-02-03T02:26:53.098Z,8.28
2018-02-03T02:27:33.645Z,8.34
2018-02-03T02:28:14.280Z,8.47
2018-02-03T02:28:54.782Z,8.34
2018-02-03T02:29:35.340Z,8.44
2018-02-03T02:30:15.905Z,8.53
2018-02-03T02:30:56.377Z,8.41
2018-02-03T02:31:36.967Z,8.37
2018-02-03T02:32:17.545Z,8.41
2018-02-03T02:32:58.030Z,8.25
2018-02-03T02:33:38.561Z,8.36
2018-02-03T02:34:19.126Z,8.37
2018-02-03T02:34:59.643Z,8.38
2018-02-03T02:35:40.256Z,8.41
2018-02-03T02:36:20.755Z,8.36
2018-02-03T02:37:01.298Z,8.29
2018-02-03T02:37:41.842Z,8.37
2018-02-03T02:38:22.373Z,8.5
2018-02-03T02:39:03.021Z,8.4
2018-02-03T02:39:43.524Z,8.44
2018-02-03T02:40:24.041Z,8.47
2018-02-03T02:41:04.722Z,8.47
2018-02-03T02:41:45.128Z,8.43
2018-02-03T02:42:25.710Z,8.48
2018-02-03T02:43:06.194Z,8.48
2018-02-03T02:43:46.783Z,8.44
2018-02-03T02:44:27.355Z,8.41
2018-02-03T02:45:07.857Z,8.38
2018-02-03T02:45:48.375Z,8.34
2018-02-03T02:46:28.876Z,8.33
2018-02-03T02:47:09.433Z,8.15
2018-02-03T02:47:50.005Z,8.23
2018-02-03T02:48:30.567Z,8.22
2018-02-03T02:49:11.068Z,8.33
2018-02-03T02:49:51.646Z,8.2
2018-02-03T02:50:32.161Z,8.38
2018-02-03T02:51:12.765Z,8.26
2018-02-03T02:51:53.293Z,8.34
2018-02-03T02:52:33.790Z,8.16
2018-02-03T02:53:14.334Z,8.15
2018-02-03T02:53:54.859Z,8.2
2018-02-03T02:54:35.404Z,8.07
2018-02-03T02:55:15.932Z,8.02
2018-02-03T02:55:56.469Z,7.9
2018-02-03T02:56:37.009Z,8.02
2018-02-03T02:57:17.518Z,8.02
2018-02-03T02:57:58.070Z,8.08
2018-02-03T02:58:38.570Z,8.08
2018-02-03T02:59:19.135Z,8.18
2018-02-03T02:59:59.690Z,8.2
2018-02-03T03:00:40.235Z,8.07
2018-02-03T03:01:20.730Z,8.12
2018-02-03T03:02:01.236Z,8.1
2018-02-03T03:02:41.843Z,8.04
2018-02-03T03:03:22.349Z,8.07
2018-02-03T03:04:03.006Z,8.12
2018-02-03T03:04:43.514Z,8.1
2018-02-03T03:05:24.072Z,8.12
2018-02-03T03:06:04.561Z,8.18
2018-02-03T03:06:45.127Z,8.18
2018-02-03T03:07:25.607Z,8.2
2018-02-03T03:08:06.080Z,8.07
2018-02-03T03:08:46.623Z,8.12
2018-02-03T03:09:27.151Z,7.95
2018-02-03T03:10:07.803Z,8.01
2018-02-03T03:10:48.285Z,7.95
2018-02-03T03:11:28.809Z,8.02
2018-02-03T03:12:09.304Z,8.04
2018-02-03T03:12:49.871Z,8
2018-02-03T03:13:30.373Z,8.1
2018-02-03T03:14:10.920Z,8.08
2018-02-03T03:14:51.441Z,8.29
2018-02-03T03:15:31.951Z,8.3
2018-02-03T03:16:12.493Z,8.33
2018-02-03T03:16:53.010Z,8.38
2018-02-03T03:17:33.481Z,8.38
2018-02-03T03:18:14.016Z,8.26
2018-02-03T03:18:54.565Z,8.38
2018-02-03T03:19:35.071Z,8.29
2018-02-03T03:20:15.642Z,8.37
2018-02-03T03:20:56.199Z,8.34
2018-02-03T03:21:36.711Z,8.2
2018-02-03T03:22:17.249Z,8.07
2018-02-03T03:22:57.801Z,8.1
2018-02-03T03:23:38.435Z,8.25
2018-02-03T03:24:18.926Z,8.23
2018-02-03T03:24:59.431Z,8.18
2018-02-03T03:25:40.787Z,8.25
2018-02-03T03:26:21.321Z,8.25
2018-02-03T03:27:01.912Z,8.36
2018-02-03T03:27:42.472Z,8.4
2018-02-03T03:28:23.020Z,8.52
2018-02-03T03:29:03.561Z,8.44
2018-02-03T03:29:44.088Z,8.43
2018-02-03T03:30:24.648Z,8.38
2018-02-03T03:31:05.165Z,8.37
2018-02-03T03:31:45.679Z,8.36
2018-02-03T03:32:26.206Z,8.41
2018-02-03T03:33:06.745Z,8.4
2018-02-03T03:33:47.278Z,8.4
2018-02-03T03:34:27.788Z,8.45
2018-02-03T03:35:08.406Z,8.53
2018-02-03T03:35:48.937Z,8.5
2018-02-03T03:36:29.425Z,8.43
2018-02-03T03:37:09.985Z,8.47
2018-02-03T03:37:50.600Z,8.4
2018-02-03T03:38:31.113Z,8.47
2018-02-03T03:39:11.659Z,8.4
2018-02-03T03:39:52.180Z,8.38
2018-02-03T03:40:32.715Z,8.3
2018-02-03T03:41:13.214Z,8.34
2018-02-03T03:41:53.749Z,8.45
2018-02-03T03:42:34.367Z,8.5
2018-02-03T03:43:14.975Z,8.58
2018-02-03T03:43:55.546Z,8.62
2018-02-03T03:44:36.043Z,8.61
2018-02-03T03:45:16.596Z,8.58
2018-02-03T03:45:57.132Z,8.73
2018-02-03T03:46:37.634Z,8.68
2018-02-03T03:47:18.190Z,8.73
2018-02-03T03:47:58.696Z,8.77
2018-02-03T03:48:39.232Z,8.84
2018-02-03T03:49:19.798Z,8.71
2018-02-03T03:50:00.278Z,8.59
2018-02-03T03:50:40.854Z,8.61
2018-02-03T03:51:21.355Z,8.73
2018-02-03T03:52:01.880Z,8.56
2018-02-03T03:52:42.375Z,8.41
2018-02-03T03:53:22.876Z,8.45
2018-02-03T03:54:03.464Z,8.36
2018-02-03T03:54:43.983Z,8.44
2018-02-03T03:55:24.486Z,8.53
2018-02-03T03:56:05.094Z,8.43
2018-02-03T03:56:45.651Z,8.34
2018-02-03T03:57:27.366Z,8.26
2018-02-03T03:58:07.879Z,8.11
2018-02-03T03:58:48.407Z,8.15
2018-02-03T03:59:28.965Z,8.04
2018-02-03T04:00:09.504Z,8.05
2018-02-03T04:00:50.075Z,7.89
2018-02-03T04:01:30.568Z,7.77
2018-02-03T04:02:11.118Z,7.79
2018-02-03T04:02:51.717Z,7.8
2018-02-03T04:03:32.178Z,7.79
2018-02-03T04:04:12.757Z,7.5
2018-02-03T04:04:53.246Z,7.5
2018-02-03T04:05:33.833Z,7.46
2018-02-03T04:06:14.322Z,7.46
2018-02-03T04:06:54.864Z,7.48
2018-02-03T04:07:35.462Z,7.52
2018-02-03T04:08:15.985Z,7.43
2018-02-03T04:08:56.489Z,7.52
2018-02-03T04:09:37.060Z,7.37
2018-02-03T04:10:17.588Z,7.49
2018-02-03T04:10:58.154Z,7.61
2018-02-03T04:11:38.600Z,7.61
2018-02-03T04:12:19.166Z,7.55
2018-02-03T04:12:59.749Z,7.61
2018-02-03T04:13:40.291Z,7.63
2018-02-03T04:14:20.830Z,7.5
2018-02-03T04:15:01.381Z,7.58
2018-02-03T04:15:41.888Z,7.5
2018-02-03T04:16:22.454Z,7.68
2018-02-03T04:17:03.013Z,7.57
2018-02-03T04:17:43.530Z,7.58
2018-02-03T04:18:24.053Z,7.68
2018-02-03T04:19:04.563Z,7.68
2018-02-03T04:19:45.091Z,7.5
2018-02-03T04:20:25.637Z,7.5
2018-02-03T04:21:06.195Z,7.64
2018-02-03T04:21:46.759Z,7.72
2018-02-03T04:22:27.253Z,7.89
2018-02-03T04:23:07.811Z,7.95
2018-02-03T04:23:48.387Z,8.07
2018-02-03T04:24:28.931Z,8.1
2018-02-03T04:25:09.435Z,8.08
2018-02-03T04:25:49.986Z,8.07
2018-02-03T04:26:30.498Z,8.11
2018-02-03T04:27:11.182Z,8.05
2018-02-03T04:27:51.651Z,8.04
2018-02-03T04:28:32.156Z,8
2018-02-03T04:29:12.710Z,7.86
2018-02-03T04:29:53.240Z,7.89
2018-02-03T04:30:33.829Z,7.89
2018-02-03T04:31:14.382Z,8.05
2018-02-03T04:31:54.933Z,8.08
2018-02-03T04:32:35.488Z,8.1
2018-02-03T04:33:15.947Z,8.07
2018-02-03T04:33:56.481Z,8.15
2018-02-03T04:34:37.037Z,8.2
2018-02-03T04:35:17.602Z,8.28
2018-02-03T04:35:58.136Z,8.28
2018-02-03T04:36:38.638Z,8.28
2018-02-03T04:37:19.170Z,8.34
2018-02-03T04:37:59.731Z,8.41
2018-02-03T04:38:40.300Z,8.44
2018-02-03T04:39:20.905Z,8.37
2018-02-03T04:40:01.458Z,8.45
2018-02-03T04:40:42.052Z,8.36
2018-02-03T04:41:22.658Z,8.18
2018-02-03T04:42:03.137Z,8.29
2018-02-03T04:42:43.706Z,8.28
2018-02-03T04:43:24.218Z,8.15
2018-02-03T04:44:04.742Z,8.16
2018-02-03T04:44:45.346Z,8.19
2018-02-03T04:45:25.833Z,8.23
2018-02-03T04:46:06.381Z,8.2
2018-02-03T04:46:46.887Z,8.28
2018-02-03T04:47:27.500Z,8.26
2018-02-03T04:48:08.034Z,8.28
2018-02-03T04:48:48.554Z,8.33
2018-02-03T04:49:29.092Z,8.41
2018-02-03T04:50:09.722Z,8.3
2018-02-03T04:50:50.262Z,8.38
2018-02-03T04:51:30.814Z,8.3
2018-02-03T04:52:11.315Z,8.22
2018-02-03T04:52:51.888Z,8.25
2018-02-03T04:53:32.440Z,8.11
2018-02-03T04:54:12.983Z,8.16
2018-02-03T04:54:53.501Z,8.08
2018-02-03T04:55:34.075Z,8.18
2018-02-03T04:56:14.605Z,8.26
2018-02-03T04:56:55.084Z,8.18
2018-02-03T04:57:35.776Z,8.08
2018-02-03T04:58:16.261Z,8.1
2018-02-03T04:58:56.794Z,8.07
2018-02-03T04:59:37.328Z,8.11
2018-02-03T05:00:17.951Z,8.1
2018-02-03T05:00:58.446Z,8.25
2018-02-03T05:01:39.014Z,8.16
2018-02-03T05:02:19.532Z,8.07
2018-02-03T05:03:00.051Z,8.19
2018-02-03T05:03:40.595Z,8.07
2018-02-03T05:04:21.130Z,8.04
2018-02-03T05:05:01.662Z,7.83
2018-02-03T05:05:42.185Z,7.93
2018-02-03T05:06:22.723Z,7.9
2018-02-03T05:07:03.304Z,7.95
2018-02-03T05:07:43.816Z,7.85
2018-02-03T05:08:24.353Z,7.92
2018-02-03T05:09:04.911Z,8.04
2018-02-03T05:09:45.439Z,8.08
2018-02-03T05:10:25.973Z,8.07
2018-02-03T05:11:06.526Z,8.01
2018-02-03T05:11:47.099Z,8.02
2018-02-03T05:12:27.593Z,7.86
2018-02-03T05:13:08.157Z,7.98
2018-02-03T05:13:48.727Z,7.98
2018-02-03T05:14:29.260Z,8
2018-02-03T05:15:09.844Z,8.01
2018-02-03T05:15:50.401Z,7.92
2018-02-03T05:16:30.904Z,7.92
2018-02-03T05:17:11.474Z,8.01
2018-02-03T05:17:51.986Z,7.97
2018-02-03T05:18:32.540Z,7.83
2018-02-03T05:19:13.065Z,7.9
2018-02-03T05:19:53.642Z,7.86
2018-02-03T05:20:34.186Z,7.97
2018-02-03T05:21:14.737Z,8.1
2018-02-03T05:21:55.262Z,8.07
2018-02-03T05:22:35.763Z,8.12
2018-02-03T05:23:16.327Z,8.04
2018-02-03T05:23:56.833Z,8.05
2018-02-03T05:24:37.452Z,8.1
2018-02-03T05:25:17.930Z,8.15
2018-02-03T05:25:58.469Z,8.08
2018-02-03T05:26:38.987Z,8.07
2018-02-03T05:27:19.526Z,8.1
2018-02-03T05:28:00.059Z,8.12
2018-02-03T05:28:40.626Z,8
2018-02-03T05:29:21.133Z,8.08
2018-02-03T05:30:01.661Z,8.05
2018-02-03T05:30:42.200Z,7.95
2018-02-03T05:31:22.707Z,7.89
2018-02-03T05:32:03.284Z,7.92
2018-02-03T05:32:43.817Z,7.86
2018-02-03T05:33:24.364Z,7.9
2018-02-03T05:34:04.920Z,7.95
2018-02-03T05:34:45.439Z,7.8
2018-02-03T05:35:25.969Z,7.83
2018-02-03T05:36:06.488Z,7.77
2018-02-03T05:36:47.023Z,7.79
2018-02-03T05:37:27.913Z,7.86
2018-02-03T05:38:08.350Z,7.8
2018-02-03T05:38:48.938Z,7.85
2018-02-03T05:39:29.472Z,7.87
2018-02-03T05:40:10.004Z,8
2018-02-03T05:40:50.513Z,8.05
2018-02-03T05:41:31.030Z,8.08
2018-02-03T05:42:11.604Z,8.12
2018-02-03T05:42:52.111Z,8.11
2018-02-03T05:43:32.664Z,8.12
2018-02-03T05:44:13.190Z,8.1
2018-02-03T05:44:53.770Z,8.1
2018-02-03T05:45:34.266Z,8
2018-02-03T05:46:14.948Z,8
2018-02-03T05:46:55.382Z,7.72
2018-02-03T05:47:35.959Z,7.6
2018-02-03T05:48:16.485Z,7.64
2018-02-03T05:48:56.980Z,7.77
2018-02-03T05:49:37.566Z,7.74
2018-02-03T05:50:18.116Z,7.79
2018-02-03T05:51:00.624Z,7.82
2018-02-03T05:51:41.137Z,7.89
2018-02-03T05:52:21.771Z,7.87
2018-02-03T05:53:02.248Z,8.15
2018-02-03T05:53:42.738Z,8.18
2018-02-03T05:54:23.265Z,8.11
2018-02-03T05:55:03.798Z,8.16
2018-02-03T05:55:44.327Z,8.22
2018-02-03T05:56:24.850Z,8.18
2018-02-03T05:57:05.397Z,8.16
2018-02-03T05:57:45.987Z,8.15
2018-02-03T05:58:26.528Z,8.15
2018-02-03T05:59:07.060Z,8.11
2018-02-03T05:59:47.558Z,8.19
2018-02-03T06:00:28.119Z,8.11
2018-02-03T06:01:08.712Z,8.15
2018-02-03T06:01:49.236Z,8.19
2018-02-03T06:02:29.785Z,8.19
2018-02-03T06:03:10.346Z,8.08
2018-02-03T06:03:51.012Z,8.12
2018-02-03T06:04:31.513Z,8.19
2018-02-03T06:05:12.079Z,8.12
2018-02-03T06:05:52.537Z,8.08
2018-02-03T06:06:33.083Z,8.12
2018-02-03T06:07:13.636Z,8.2
2018-02-03T06:07:54.124Z,8.22
2018-02-03T06:08:34.654Z,8.25
2018-02-03T06:09:15.271Z,8.16
2018-02-03T06:09:55.881Z,8.25
2018-02-03T06:10:36.411Z,8.33
2018-02-03T06:11:16.907Z,8.12
2018-02-03T06:11:57.504Z,8.15
2018-02-03T06:12:38.081Z,8.1
2018-02-03T06:13:18.557Z,8.04
2018-02-03T06:13:59.090Z,8.12
2018-02-03T06:14:39.644Z,8.08
2018-02-03T06:15:20.159Z,8.07
2018-02-03T06:16:00.802Z,7.89
2018-02-03T06:16:41.356Z,7.86
2018-02-03T06:17:21.868Z,7.82
2018-02-03T06:18:02.409Z,7.86
2018-02-03T06:18:42.958Z,8.05
2018-02-03T06:19:23.484Z,8.08
2018-02-03T06:20:04.042Z,8.05
2018-02-03T06:20:44.546Z,7.74
2018-02-03T06:21:25.112Z,7.75
2018-02-03T06:22:05.651Z,7.61
2018-02-03T06:22:46.227Z,7.72
2018-02-03T06:23:26.725Z,7.64
2018-02-03T06:24:07.234Z,7.67
2018-02-03T06:24:47.784Z,7.68
2018-02-03T06:25:28.273Z,7.69
2018-02-03T06:26:08.838Z,7.75
2018-02-03T06:26:49.403Z,7.67
2018-02-03T06:27:29.948Z,7.68
2018-02-03T06:28:10.464Z,7.52
2018-02-03T06:28:51.030Z,7.58
2018-02-03T06:29:31.591Z,7.67
2018-02-03T06:30:12.137Z,7.71
2018-02-03T06:30:52.658Z,7.8
2018-02-03T06:31:33.194Z,7.8
2018-02-03T06:32:13.682Z,7.74
2018-02-03T06:32:54.253Z,7.68
2018-02-03T06:33:34.774Z,7.75
2018-02-03T06:34:15.402Z,7.8
2018-02-03T06:34:55.852Z,7.67
2018-02-03T06:35:36.524Z,7.75
2018-02-03T06:36:17.069Z,7.6
2018-02-03T06:36:57.600Z,7.57
2018-02-03T06:37:38.190Z,7.46
2018-02-03T06:38:18.721Z,7.35
2018-02-03T06:38:59.225Z,7.52
2018-02-03T06:39:39.738Z,7.48
2018-02-03T06:40:20.263Z,7.5
2018-02-03T06:41:00.891Z,7.68
2018-02-03T06:41:41.342Z,7.75
2018-02-03T06:42:21.893Z,7.75
2018-02-03T06:43:02.453Z,7.53
2018-02-03T06:43:43.001Z,7.68
2018-02-03T06:44:23.459Z,7.64
2018-02-03T06:45:04.037Z,7.71
2018-02-03T06:45:44.556Z,7.83
2018-02-03T06:46:25.090Z,7.71
2018-02-03T06:47:05.617Z,7.77
2018-02-03T06:47:46.200Z,7.71
2018-02-03T06:48:26.784Z,7.82
2018-02-03T06:49:07.342Z,7.82
2018-02-03T06:49:47.873Z,7.85
2018-02-03T06:50:28.418Z,7.79
2018-02-03T06:51:08.935Z,7.77
2018-02-03T06:51:49.493Z,7.8
2018-02-03T06:52:30.049Z,7.63
2018-02-03T06:53:10.623Z,7.58
2018-02-03T06:53:51.081Z,7.45
2018-02-03T06:54:31.698Z,7.45
2018-02-03T06:55:12.200Z,7.43
2018-02-03T06:55:52.731Z,7.24
2018-02-03T06:56:33.271Z,7.16
2018-02-03T06:57:13.822Z,7.3
2018-02-03T06:57:54.344Z,7.5
2018-02-03T06:58:34.908Z,7.43
2018-02-03T06:59:15.550Z,7.52
2018-02-03T06:59:56.066Z,7.58
2018-02-03T07:00:36.631Z,7.37
2018-02-03T07:01:17.161Z,7.42
2018-02-03T07:01:57.733Z,7.4
2018-02-03T07:02:38.272Z,7.31
2018-02-03T07:03:18.743Z,7.24
2018-02-03T07:03:59.294Z,7.28
2018-02-03T07:04:39.806Z,7.32
2018-02-03T07:05:20.341Z,7.46
2018-02-03T07:06:00.844Z,7.49
2018-02-03T07:06:41.439Z,7.42
2018-02-03T07:07:21.993Z,7.4
2018-02-03T07:08:02.648Z,7.43
2018-02-03T07:08:43.153Z,7.55
2018-02-03T07:09:23.738Z,7.68
2018-02-03T07:10:04.228Z,7.67
2018-02-03T07:10:44.763Z,7.52
2018-02-03T07:11:25.286Z,7.52
2018-02-03T07:12:05.910Z,7.57
2018-02-03T07:12:46.431Z,7.52
2018-02-03T07:13:26.974Z,7.67
2018-02-03T07:14:07.529Z,7.67
2018-02-03T07:14:48.065Z,7.75
2018-02-03T07:15:28.689Z,7.52
2018-02-03T07:16:09.390Z,7.52
2018-02-03T07:16:49.972Z,7.49
2018-02-03T07:17:30.411Z,7.53
2018-02-03T07:18:10.960Z,7.48
2018-02-03T07:18:51.520Z,7.4
2018-02-03T07:19:32.099Z,7.4
2018-02-03T07:20:12.640Z,7.45
2018-02-03T07:20:53.295Z,7.43
2018-02-03T07:21:33.862Z,7.45
2018-02-03T07:22:14.452Z,7.31
2018-02-03T07:22:54.938Z,7.3
2018-02-03T07:23:35.502Z,7.39
2018-02-03T07:24:16.148Z,7.28
2018-02-03T07:24:56.656Z,7.13
2018-02-03T07:25:37.226Z,7.31
2018-02-03T07:26:17.792Z,7.42
2018-02-03T07:26:58.322Z,7.53
2018-02-03T07:27:38.856Z,7.35
2018-02-03T07:28:19.382Z,7.3
2018-02-03T07:28:59.992Z,7.23
2018-02-03T07:29:40.539Z,7.17
2018-02-03T07:30:21.141Z,7.3
2018-02-03T07:31:01.661Z,7.45
2018-02-03T07:31:42.209Z,7.32
2018-02-03T07:32:22.741Z,7.32
2018-02-03T07:33:03.276Z,7.28
2018-02-03T07:33:43.876Z,7.45
2018-02-03T07:34:24.400Z,7.42
2018-02-03T07:35:04.957Z,7.42
2018-02-03T07:35:45.656Z,7.58
2018-02-03T07:36:26.236Z,7.6
2018-02-03T07:37:06.790Z,7.4
2018-02-03T07:37:47.299Z,7.39
2018-02-03T07:38:27.829Z,7.42
2018-02-03T07:39:08.347Z,7.53
2018-02-03T07:39:48.861Z,7.42
2018-02-03T07:40:29.430Z,7.39
2018-02-03T07:41:09.927Z,7.45
2018-02-03T07:41:50.548Z,7.34
2018-02-03T07:42:31.125Z,7.4
2018-02-03T07:43:11.788Z,7.35
2018-02-03T07:43:52.287Z,7.58
2018-02-03T07:44:32.788Z,7.45
2018-02-03T07:45:13.308Z,7.42
2018-02-03T07:45:53.869Z,7.4
2018-02-03T07:46:34.461Z,7.43
2018-02-03T07:47:14.992Z,7.39
2018-02-03T07:47:55.762Z,7.31
2018-02-03T07:48:36.279Z,7.42
2018-02-03T07:49:16.786Z,7.3
2018-02-03T07:49:57.523Z,7.4
2018-02-03T07:50:38.119Z,7.45
2018-02-03T07:51:18.688Z,7.48
2018-02-03T07:51:59.271Z,7.52
2018-02-03T07:52:39.822Z,7.68
2018-02-03T07:53:20.450Z,7.5
2018-02-03T07:54:00.974Z,7.42
2018-02-03T07:54:41.517Z,7.35
2018-02-03T07:55:22.052Z,7.13
2018-02-03T07:56:02.550Z,7.2
2018-02-03T07:56:43.092Z,7.31
2018-02-03T07:57:23.659Z,7.42
2018-02-03T07:58:04.193Z,7.46
2018-02-03T07:58:44.802Z,7.53
2018-02-03T07:59:25.306Z,7.61
2018-02-03T08:00:06.132Z,7.69
2018-02-03T08:00:46.649Z,7.71
2018-02-03T08:01:28.020Z,7.72
2018-02-03T08:02:08.543Z,7.49
2018-02-03T08:02:49.101Z,7.46
2018-02-03T08:03:29.629Z,7.5
2018-02-03T08:04:10.206Z,7.58
2018-02-03T08:04:50.732Z,7.39
2018-02-03T08:05:31.337Z,7.4
2018-02-03T08:06:11.878Z,7.35
2018-02-03T08:06:52.402Z,7.5
2018-02-03T08:07:32.981Z,7.49
2018-02-03T08:08:13.487Z,7.4
2018-02-03T08:08:54.888Z,7.5
2018-02-03T08:09:35.192Z,7.46
2018-02-03T08:10:15.695Z,7.49
2018-02-03T08:10:56.305Z,7.42
2018-02-03T08:11:40.052Z,7.35
2018-02-03T08:12:22.219Z,7.42
2018-02-03T08:13:02.752Z,7.3
2018-02-03T08:13:43.331Z,7.42
2018-02-03T08:14:23.871Z,7.31
2018-02-03T08:15:05.789Z,7.42
2018-02-03T08:15:45.723Z,7.55
2018-02-03T08:16:26.270Z,7.52
2018-02-03T08:17:06.817Z,7.43
2018-02-03T08:17:47.374Z,7.3
2018-02-03T08:18:27.893Z,7.42
2018-02-03T08:19:08.400Z,7.39
2018-02-03T08:19:49.147Z,7.27
2018-02-03T08:20:29.599Z,7.45
2018-02-03T08:21:10.267Z,7.48
2018-02-03T08:21:50.728Z,7.45
2018-02-03T08:22:31.299Z,7.43
2018-02-03T08:23:11.966Z,7.71
2018-02-03T08:23:52.414Z,7.6
2018-02-03T08:24:33.027Z,7.4
2018-02-03T08:25:13.601Z,7.4
2018-02-03T08:25:54.069Z,7.35
2018-02-03T08:26:34.634Z,7.42
2018-02-03T08:27:15.195Z,7.67
2018-02-03T08:27:55.723Z,7.74
2018-02-03T08:28:36.281Z,7.85
2018-02-03T08:29:16.834Z,7.63
2018-02-03T08:29:57.464Z,7.53
2018-02-03T08:30:38.000Z,7.63
2018-02-03T08:31:18.583Z,7.52
2018-02-03T08:31:59.293Z,7.4
2018-02-03T08:32:39.820Z,7.48
2018-02-03T08:33:20.373Z,7.72
2018-02-03T08:34:00.898Z,7.77
2018-02-03T08:34:41.444Z,7.89
2018-02-03T08:35:22.074Z,7.9
2018-02-03T08:36:02.594Z,7.87
2018-02-03T08:36:43.145Z,7.8
2018-02-03T08:37:23.687Z,7.69
2018-02-03T08:38:04.183Z,7.74
2018-02-03T08:38:44.780Z,7.72
2018-02-03T08:39:25.402Z,7.64
2018-02-03T08:40:05.874Z,7.6
2018-02-03T08:40:46.418Z,7.71
2018-02-03T08:41:27.034Z,7.63
2018-02-03T08:42:07.614Z,7.52
2018-02-03T08:42:48.143Z,7.69
2018-02-03T08:43:28.641Z,7.74
2018-02-03T08:44:09.315Z,7.74
2018-02-03T08:44:49.826Z,7.83
2018-02-03T08:45:30.583Z,7.92
2018-02-03T08:46:11.060Z,7.86
2018-02-03T08:46:51.627Z,8.01
2018-02-03T08:47:32.188Z,8.07
2018-02-03T08:48:12.844Z,8.04
2018-02-03T08:48:54.105Z,7.89
2018-02-03T08:50:54.924Z,8
2018-02-03T08:51:35.735Z,8.05
2018-02-03T08:52:16.281Z,8.1
2018-02-03T08:52:56.788Z,8.11
2018-02-03T08:53:37.379Z,7.95
2018-02-03T08:54:18.023Z,7.89
2018-02-03T08:54:58.635Z,7.97
2018-02-03T08:55:39.132Z,7.85
2018-02-03T08:56:19.688Z,7.75
2018-02-03T08:57:00.218Z,7.75
2018-02-03T08:57:40.757Z,7.72
2018-02-03T08:58:21.267Z,7.83
2018-02-03T08:59:01.787Z,7.72
2018-02-03T08:59:42.310Z,7.92
2018-02-03T09:00:23.040Z,7.89
2018-02-03T09:01:03.535Z,8.04
2018-02-03T09:01:44.131Z,8.1
2018-02-03T09:02:24.651Z,8.12
2018-02-03T09:03:05.175Z,8.19
2018-02-03T09:03:45.731Z,8.01
2018-02-03T09:04:26.253Z,7.93